Time;durP1;ratioP1;P1;durP2;ratioP2;P2;SDS_P1;SDS_P2;PMS_P1;PMS_P2;Temp;Humidity;BMP_temperature;BMP_pressure;BME280_temperature;BME280_humidity;BME280_pressure;Samples;Min_cycle;Max_cycle;Signal;HPM_P1;HPM_P2
2021/03/20 00:02:13;;;;;;;8.32;5.30;;;-0.40;99.90;;;;;;5010563;28;20384;-71
2021/03/20 00:04:39;;;;;;;4.72;4.20;;;1.10;99.90;;;;;;5010064;28;20381;-71
2021/03/20 00:07:05;;;;;;;7.13;4.10;;;;;;;;;;5025725;28;20492;-70
2021/03/20 00:09:32;;;;;;;4.60;3.75;;;0.10;99.90;;;;;;5009699;28;20472;-72
2021/03/20 00:11:58;;;;;;;5.80;3.08;;;0.00;99.90;;;;;;5010614;28;20715;-71
2021/03/20 00:14:25;;;;;;;5.90;3.30;;;-0.20;99.90;;;;;;5009823;28;20715;-71
2021/03/20 00:16:51;;;;;;;5.10;3.30;;;0.20;99.90;;;;;;5010502;28;20381;-70
2021/03/20 00:19:17;;;;;;;4.35;3.40;;;0.10;99.90;;;;;;5010170;28;20435;-75
2021/03/20 00:21:43;;;;;;;5.97;3.28;;;0.20;99.90;;;;;;5012955;28;20467;-70
2021/03/20 00:24:09;;;;;;;5.27;3.10;;;2.00;99.90;;;;;;5014422;28;20447;-70
2021/03/20 00:26:36;;;;;;;5.60;3.70;;;0.00;99.90;;;;;;5014016;28;20388;-70
2021/03/20 00:29:03;;;;;;;3.42;2.92;;;0.70;99.90;;;;;;5014484;28;20404;-70
2021/03/20 00:31:28;;;;;;;4.53;3.03;;;-0.10;99.90;;;;;;5013974;28;20415;-71
2021/03/20 00:33:54;;;;;;;5.10;3.65;;;0.60;99.90;;;;;;5029626;28;20389;-71
2021/03/20 00:36:20;;;;;;;7.15;3.70;;;1.90;99.90;;;;;;5012072;28;20400;-74
2021/03/20 00:38:46;;;;;;;5.18;3.80;;;0.20;99.90;;;;;;5014059;28;20396;-71
2021/03/20 00:41:13;;;;;;;4.60;3.38;;;0.20;99.90;;;;;;5013875;28;20463;-70
2021/03/20 00:43:39;;;;;;;4.10;3.60;;;-0.30;99.90;;;;;;5013339;28;20472;-70
2021/03/20 00:46:08;;;;;;;3.83;2.83;;;0.20;99.90;;;;;;5014115;28;20384;-70
2021/03/20 00:48:36;;;;;;;4.40;3.38;;;0.60;99.90;;;;;;5013192;28;20500;-70
2021/03/20 00:51:02;;;;;;;6.22;3.30;;;0.20;99.90;;;;;;5014042;28;20472;-70
2021/03/20 00:53:29;;;;;;;3.85;3.28;;;0.60;99.90;;;;;;5013076;28;20447;-70
2021/03/20 00:55:55;;;;;;;4.28;3.50;;;0.30;99.90;;;;;;5013607;28;20389;-70
2021/03/20 00:58:24;;;;;;;3.95;3.10;;;0.10;99.90;;;;;;5013261;28;20380;-74
2021/03/20 01:00:53;;;;;;;3.67;3.25;;;0.00;99.90;;;;;;5013764;28;20472;-70
2021/03/20 01:03:19;;;;;;;3.50;3.00;;;-0.10;99.90;;;;;;5013583;28;20383;-74
2021/03/20 01:05:45;;;;;;;4.37;3.50;;;0.20;99.90;;;;;;5013479;28;20373;-70
2021/03/20 01:08:11;;;;;;;4.53;3.35;;;-0.20;99.90;;;;;;5012496;28;20797;-70
2021/03/20 01:10:37;;;;;;;5.73;4.57;;;-0.10;99.90;;;;;;5012834;28;20427;-70
2021/03/20 01:13:04;;;;;;;5.57;4.10;;;0.00;99.90;;;;;;5013792;28;20438;-70
2021/03/20 01:15:31;;;;;;;5.57;3.90;;;0.00;99.90;;;;;;5012673;28;20400;-70
2021/03/20 01:17:56;;;;;;;6.30;4.47;;;0.00;99.90;;;;;;5013199;28;20393;-70
2021/03/20 01:20:22;;;;;;;5.15;3.95;;;-0.10;99.90;;;;;;5012538;28;20377;-74
2021/03/20 01:22:48;;;;;;;4.00;3.20;;;-0.20;99.90;;;;;;5013474;28;20889;-70
2021/03/20 01:25:14;;;;;;;4.17;3.40;;;1.40;99.90;;;;;;5013277;28;20472;-70
2021/03/20 01:27:40;;;;;;;4.82;3.22;;;-0.30;99.90;;;;;;5011011;28;20472;-70
2021/03/20 01:30:08;;;;;;;4.38;3.97;;;0.00;99.90;;;;;;5028639;28;20389;-70
2021/03/20 01:32:33;;;;;;;4.45;3.55;;;-1.90;99.90;;;;;;5027288;28;20491;-70
2021/03/20 01:34:59;;;;;;;3.90;3.17;;;-0.30;99.90;;;;;;5028462;28;20924;-70
2021/03/20 01:37:25;;;;;;;4.57;3.13;;;-0.30;99.90;;;;;;5012142;28;20488;-70
2021/03/20 01:39:50;;;;;;;4.70;3.50;;;-0.30;99.90;;;;;;5013417;28;20396;-70
2021/03/20 01:42:16;;;;;;;5.53;3.05;;;-0.20;99.90;;;;;;5012940;28;20499;-70
2021/03/20 01:44:42;;;;;;;4.33;3.40;;;-0.40;99.90;;;;;;5012277;28;21018;-71
2021/03/20 01:47:16;;;;;;;5.65;3.20;;;0.30;99.90;;;;;;5012900;28;20373;-71
2021/03/20 01:49:46;;;;;;;5.05;3.97;;;-0.10;99.90;;;;;;5012181;28;20385;-71
2021/03/20 01:52:11;;;;;;;4.80;3.10;;;-0.40;99.90;;;;;;5012851;28;20397;-71
2021/03/20 01:55:02;;;;;;;3.83;3.13;;;-0.50;99.90;;;;;;5011828;28;20385;-71
2021/03/20 01:57:38;;;;;;;7.93;3.50;;;-0.70;99.90;;;;;;5012115;28;20400;-71
2021/03/20 02:00:14;;;;;;;4.18;3.00;;;0.70;99.90;;;;;;5013045;28;20388;-71
2021/03/20 02:02:40;;;;;;;4.30;3.50;;;-0.60;99.90;;;;;;5011911;28;20389;-71
2021/03/20 02:05:07;;;;;;;5.90;4.40;;;-0.50;99.90;;;;;;5012442;28;20381;-71
2021/03/20 02:07:33;;;;;;;8.30;4.10;;;-0.70;99.90;;;;;;5011578;28;20457;-71
2021/03/20 02:09:58;;;;;;;5.03;3.78;;;1.40;99.90;;;;;;5012610;28;20442;-70
2021/03/20 02:12:36;;;;;;;4.85;3.67;;;-0.50;99.90;;;;;;5011905;28;20433;-74
2021/03/20 02:15:35;;;;;;;5.93;3.97;;;-0.90;99.90;;;;;;5012402;28;20476;-71
2021/03/20 02:18:12;;;;;;;4.63;3.93;;;-0.80;99.90;;;;;;4988919;28;20451;-71
2021/03/20 02:21:06;;;;;;;5.82;3.63;;;-0.70;99.90;;;;;;5011590;28;20443;-70
2021/03/20 02:24:04;;;;;;;4.32;3.15;;;-0.80;99.90;;;;;;5011645;28;20715;-71
2021/03/20 02:26:41;;;;;;;5.10;3.40;;;-0.80;99.90;;;;;;5011406;28;20438;-71
2021/03/20 02:29:19;;;;;;;5.00;3.20;;;-0.80;99.90;;;;;;5011952;28;20408;-71
2021/03/20 02:32:01;;;;;;;5.07;3.38;;;-0.80;99.90;;;;;;5011313;28;20389;-70
2021/03/20 02:34:43;;;;;;;5.72;3.72;;;-0.80;99.90;;;;;;5011372;28;20710;-73
2021/03/20 02:37:27;;;;;;;5.63;4.05;;;-0.70;99.90;;;;;;5011995;28;20389;-70
2021/03/20 02:40:27;;;;;;;6.50;4.20;;;-0.60;99.90;;;;;;5011831;28;20413;-71
2021/03/20 02:43:23;;;;;;;5.47;3.67;;;-0.50;99.90;;;;;;5010512;28;20408;-71
2021/03/20 02:46:00;;;;;;;5.80;3.60;;;-0.70;99.90;;;;;;5011363;28;20389;-70
2021/03/20 02:48:37;;;;;;;4.25;3.80;;;-0.70;99.90;;;;;;5011040;28;20889;-74
2021/03/20 02:51:06;;;;;;;5.75;3.40;;;-0.70;99.90;;;;;;5011663;28;20384;-70
2021/03/20 02:54:06;;;;;;;4.90;3.47;;;-0.60;99.90;;;;;;5010674;28;20392;-71
2021/03/20 02:56:42;;;;;;;4.40;3.67;;;-0.70;99.90;;;;;;5010563;28;20408;-70
2021/03/20 02:59:12;;;;;;;4.32;3.30;;;-0.80;99.90;;;;;;5011531;28;20468;-71
2021/03/20 03:01:41;;;;;;;4.15;3.35;;;-0.90;99.90;;;;;;5025989;28;20750;-70
2021/03/20 03:04:11;;;;;;;4.13;3.20;;;-0.90;99.90;;;;;;5011508;28;20419;-71
2021/03/20 03:06:45;;;;;;;6.07;4.05;;;-0.70;99.90;;;;;;5010383;28;20392;-71
2021/03/20 03:09:24;;;;;;;5.13;3.72;;;-1.10;99.90;;;;;;5010082;28;20417;-71
2021/03/20 03:11:57;;;;;;;4.88;3.70;;;-0.90;99.90;;;;;;5010588;28;20397;-71
2021/03/20 03:14:38;;;;;;;4.93;3.83;;;0.60;99.90;;;;;;5011459;28;20473;-70
2021/03/20 03:17:05;;;;;;;5.03;4.10;;;-0.70;99.90;;;;;;5011186;28;20929;-71
2021/03/20 03:19:42;;;;;;;4.65;4.10;;;-0.80;99.90;;;;;;5010372;28;20427;-72
2021/03/20 03:22:12;;;;;;;5.50;4.18;;;-0.90;99.90;;;;;;5011305;28;20392;-70
2021/03/20 03:24:41;;;;;;;5.25;4.32;;;-1.00;99.90;;;;;;5010112;28;20384;-71
2021/03/20 03:27:12;;;;;;;8.95;4.38;;;1.10;99.90;;;;;;5011327;28;20439;-71
2021/03/20 03:29:38;;;;;;;6.53;4.25;;;-0.90;99.90;;;;;;5010318;28;20471;-71
2021/03/20 03:32:15;;;;;;;6.72;4.18;;;-1.20;99.90;;;;;;5011071;28;20392;-70
2021/03/20 03:34:44;;;;;;;6.00;4.10;;;-0.90;99.90;;;;;;5010181;28;20948;-71
2021/03/20 03:37:16;;;;;;;4.95;4.20;;;0.60;99.90;;;;;;5010627;28;20404;-70
2021/03/20 03:40:05;;;;;;;5.40;4.18;;;-0.80;99.90;;;;;;5010194;28;20786;-70
2021/03/20 03:42:31;;;;;;;4.87;3.90;;;-0.50;99.90;;;;;;5009532;28;20467;-70
2021/03/20 03:44:57;;;;;;;5.07;3.83;;;-0.80;99.90;;;;;;5011199;28;20389;-69
2021/03/20 03:47:28;;;;;;;4.80;3.50;;;-0.90;99.90;;;;;;5010564;28;20511;-71
2021/03/20 03:49:56;;;;;;;5.88;3.70;;;-1.00;99.90;;;;;;5010577;28;20415;-70
2021/03/20 03:52:22;;;;;;;4.80;4.13;;;-0.90;99.90;;;;;;5010736;28;20773;-71
2021/03/20 03:54:49;;;;;;;8.68;4.20;;;-1.30;99.90;;;;;;5009638;28;20905;-71
2021/03/20 03:57:37;;;;;;;4.35;3.75;;;-1.10;99.90;;;;;;5025379;28;20445;-71
2021/03/20 04:00:39;;;;;;;5.90;4.80;;;-1.10;99.90;;;;;;5010783;28;20389;-71
2021/03/20 04:03:29;;;;;;;5.28;4.07;;;-0.90;99.90;;;;;;5010635;28;20416;-71
2021/03/20 04:05:54;;;;;;;5.15;4.25;;;-1.10;99.90;;;;;;5010643;28;20389;-71
2021/03/20 04:08:32;;;;;;;6.10;4.25;;;-0.60;99.90;;;;;;5010567;28;20408;-70
2021/03/20 04:11:00;;;;;;;5.70;4.45;;;-0.80;99.90;;;;;;5010950;28;20403;-71
2021/03/20 04:13:51;;;;;;;6.10;3.88;;;-1.20;99.90;;;;;;5010564;28;20392;-71
2021/03/20 04:16:20;;;;;;;5.82;4.35;;;-1.20;99.90;;;;;;5010396;28;20381;-70
2021/03/20 04:19:07;;;;;;;5.43;4.15;;;-1.10;99.90;;;;;;5009417;28;20777;-71
2021/03/20 04:21:51;;;;;;;6.50;4.70;;;-1.10;99.90;;;;;;5009756;28;20432;-74
2021/03/20 04:24:23;;;;;;;6.75;5.30;;;-1.20;99.90;;;;;;5010822;28;20380;-70
2021/03/20 04:27:00;;;;;;;5.10;4.28;;;-0.10;99.90;;;;;;5009637;28;20884;-71
2021/03/20 04:29:41;;;;;;;6.67;4.60;;;-1.20;99.90;;;;;;5010183;28;20920;-71
2021/03/20 04:32:10;;;;;;;5.90;4.80;;;0.10;99.90;;;;;;5010332;28;20400;-71
2021/03/20 04:34:42;;;;;;;6.35;5.20;;;-0.80;99.90;;;;;;5009505;28;20401;-71
2021/03/20 04:37:17;;;;;;;5.68;4.65;;;-1.20;99.90;;;;;;5010460;28;20405;-71
2021/03/20 04:39:47;;;;;;;6.63;3.53;;;-1.30;99.90;;;;;;5009513;28;20523;-70
2021/03/20 04:42:16;;;;;;;6.27;4.13;;;-0.30;99.90;;;;;;5009939;28;20462;-70
2021/03/20 04:44:42;;;;;;;5.97;4.00;;;-1.60;99.90;;;;;;5009263;28;20388;-70
2021/03/20 04:47:13;;;;;;;6.57;4.57;;;-1.10;99.90;;;;;;5009893;28;20404;-70
2021/03/20 04:49:47;;;;;;;5.97;4.40;;;-1.10;99.90;;;;;;5009252;28;20742;-70
2021/03/20 04:52:24;;;;;;;4.90;4.22;;;-1.30;99.90;;;;;;5010404;28;20780;-70
2021/03/20 04:54:50;;;;;;;5.57;4.40;;;-1.50;99.90;;;;;;5009453;28;20459;-70
2021/03/20 04:57:32;;;;;;;6.50;4.22;;;-1.20;99.90;;;;;;5010145;28;20472;-70
2021/03/20 05:00:06;;;;;;;6.07;4.17;;;-1.30;99.90;;;;;;5009558;28;20376;-70
2021/03/20 05:02:41;;;;;;;5.80;4.38;;;-1.30;99.90;;;;;;5010282;28;20897;-73
2021/03/20 05:05:14;;;;;;;6.72;4.78;;;-1.40;99.90;;;;;;5010535;28;20385;-70
2021/03/20 05:07:40;;;;;;;6.65;4.75;;;-1.20;99.90;;;;;;5011563;28;20423;-70
2021/03/20 05:10:10;;;;;;;6.77;4.17;;;-1.60;99.90;;;;;;5012641;28;20388;-70
2021/03/20 05:12:35;;;;;;;5.38;4.10;;;-1.50;99.90;;;;;;5013237;28;20408;-73
2021/03/20 05:15:04;;;;;;;6.68;4.82;;;-1.50;99.90;;;;;;5014222;28;20381;-70
2021/03/20 05:17:32;;;;;;;6.37;4.77;;;-1.40;99.90;;;;;;5014084;28;20475;-70
2021/03/20 05:19:58;;;;;;;5.80;4.50;;;-1.30;99.90;;;;;;5012986;28;20389;-70
2021/03/20 05:22:33;;;;;;;8.25;4.53;;;-1.50;99.90;;;;;;5013805;28;20745;-70
2021/03/20 05:24:59;;;;;;;5.68;4.30;;;-1.00;99.90;;;;;;5013222;28;20396;-70
2021/03/20 05:27:29;;;;;;;5.28;4.35;;;-1.20;99.90;;;;;;5013355;28;20458;-70
2021/03/20 05:29:56;;;;;;;6.07;4.30;;;-1.10;99.90;;;;;;5012707;28;20522;-70
2021/03/20 05:32:31;;;;;;;5.13;3.75;;;-1.20;99.90;;;;;;5013342;28;20393;-70
2021/03/20 05:34:59;;;;;;;6.20;4.40;;;-1.30;99.90;;;;;;5012761;28;20388;-70
2021/03/20 05:37:35;;;;;;;6.10;4.43;;;-1.30;99.90;;;;;;5028592;28;20405;-69
2021/03/20 05:40:01;;;;;;;7.30;4.28;;;-1.50;99.90;;;;;;5028364;28;20968;-70
2021/03/20 05:42:44;;;;;;;6.20;4.80;;;-1.50;99.90;;;;;;5013050;28;20516;-70
2021/03/20 05:45:31;;;;;;;6.82;4.57;;;-2.50;99.90;;;;;;5013563;28;20516;-70
2021/03/20 05:48:08;;;;;;;6.32;4.93;;;-0.90;99.90;;;;;;5012513;28;20484;-70
2021/03/20 05:50:58;;;;;;;6.57;4.40;;;-1.50;99.90;;;;;;5013256;28;20472;-70
2021/03/20 05:53:45;;;;;;;5.05;4.50;;;-1.30;99.90;;;;;;5013171;28;20385;-70
2021/03/20 05:56:27;;;;;;;8.07;5.00;;;-1.60;99.90;;;;;;5013556;28;20380;-70
2021/03/20 05:59:11;;;;;;;6.43;4.93;;;-1.50;99.90;;;;;;5012115;28;20393;-70
2021/03/20 06:02:01;;;;;;;7.00;4.75;;;-1.40;99.90;;;;;;5013081;28;20381;-73
2021/03/20 06:04:44;;;;;;;7.68;4.65;;;-1.40;99.90;;;;;;5011691;28;20400;-70
2021/03/20 06:07:31;;;;;;;6.38;4.47;;;-1.30;99.90;;;;;;5013088;28;20404;-70
2021/03/20 06:10:08;;;;;;;5.97;4.25;;;-1.10;99.90;;;;;;5011861;28;20842;-70
2021/03/20 06:12:55;;;;;;;7.10;4.10;;;-1.00;99.90;;;;;;5012669;28;20428;-70
2021/03/20 06:16:03;;;;;;;7.07;5.03;;;-1.30;99.90;;;;;;5012522;28;20738;-70
2021/03/20 06:18:46;;;;;;;6.28;4.45;;;-1.20;99.90;;;;;;5012087;28;20385;-70
2021/03/20 06:21:50;;;;;;;6.70;5.10;;;-1.40;99.90;;;;;;5012517;28;20450;-70
2021/03/20 06:24:25;;;;;;;6.20;4.20;;;;;;;;;;5012706;28;20389;-70
2021/03/20 06:26:53;;;;;;;7.90;4.78;;;-1.30;99.90;;;;;;5011606;28;20452;-70
2021/03/20 06:29:25;;;;;;;6.97;4.35;;;-1.10;99.90;;;;;;5012509;28;20447;-70
2021/03/20 06:31:56;;;;;;;6.38;4.57;;;-0.90;99.90;;;;;;5011748;28;20420;-70
2021/03/20 06:34:35;;;;;;;5.47;4.57;;;-1.00;99.90;;;;;;5012212;28;20815;-70
2021/03/20 06:37:19;;;;;;;4.57;3.78;;;-0.80;99.90;;;;;;5011501;28;20405;-71
2021/03/20 06:40:03;;;;;;;6.97;4.45;;;-0.90;99.90;;;;;;5011641;28;20750;-71
2021/03/20 06:42:35;;;;;;;6.15;4.15;;;-1.00;99.90;;;;;;5012110;28;20451;-70
2021/03/20 06:45:03;;;;;;;6.00;4.18;;;-0.90;99.90;;;;;;5011344;28;20393;-71
2021/03/20 06:47:32;;;;;;;7.20;4.22;;;-0.90;99.90;;;;;;5012544;28;20904;-70
2021/03/20 06:50:05;;;;;;;5.10;3.60;;;-0.90;99.90;;;;;;5011077;28;21271;-70
2021/03/20 06:52:33;;;;;;;4.97;3.90;;;-0.10;99.90;;;;;;5011788;28;20433;-71
2021/03/20 06:55:05;;;;;;;3.93;3.50;;;-0.30;99.90;;;;;;5011202;28;20440;-70
2021/03/20 06:57:30;;;;;;;4.90;3.70;;;-0.40;99.90;;;;;;5012518;28;20385;-70
2021/03/20 07:00:00;;;;;;;6.17;4.20;;;1.20;99.90;;;;;;5011302;28;20389;-71
2021/03/20 07:02:52;;;;;;;5.90;3.97;;;-0.20;99.90;;;;;;5012106;28;20377;-70
2021/03/20 07:05:25;;;;;;;6.43;4.28;;;-0.20;99.90;;;;;;5011961;28;20384;-71
2021/03/20 07:08:23;;;;;;;5.15;4.20;;;-0.30;99.90;;;;;;5010863;28;20603;-71
2021/03/20 07:10:53;;;;;;;5.43;4.10;;;-0.20;99.90;;;;;;5010984;28;20400;-71
2021/03/20 07:13:27;;;;;;;6.25;4.32;;;0.80;99.90;;;;;;5011121;28;20385;-71
2021/03/20 07:16:06;;;;;;;4.90;4.35;;;0.10;99.90;;;;;;5010908;28;20389;-70
2021/03/20 07:18:50;;;;;;;5.57;4.40;;;0.00;99.90;;;;;;5011104;28;20737;-70
2021/03/20 07:21:22;;;;;;;5.20;3.87;;;-0.10;99.90;;;;;;5011131;28;20391;-71
2021/03/20 07:24:07;;;;;;;4.60;4.10;;;1.20;99.90;;;;;;5010278;28;20389;-71
2021/03/20 07:26:57;;;;;;;4.70;4.15;;;0.00;99.90;;;;;;5011166;28;20396;-71
2021/03/20 07:29:41;;;;;;;5.40;3.80;;;0.20;99.90;;;;;;5009514;28;20496;-71
2021/03/20 07:32:10;;;;;;;5.57;4.00;;;1.70;99.90;;;;;;5010769;28;20459;-71
2021/03/20 07:34:36;;;;;;;4.70;3.78;;;0.90;99.90;;;;;;5011248;28;20385;-71
2021/03/20 07:37:13;;;;;;;6.47;4.38;;;1.40;99.90;;;;;;5010638;28;20460;-71
2021/03/20 07:39:43;;;;;;;4.55;3.90;;;0.80;99.90;;;;;;5011346;28;20408;-72
2021/03/20 07:42:28;;;;;;;5.60;4.40;;;0.60;99.90;;;;;;5010664;28;20400;-70
2021/03/20 07:44:58;;;;;;;4.53;3.95;;;0.90;99.90;;;;;;5010157;28;20483;-71
2021/03/20 07:47:36;;;;;;;5.53;3.80;;;0.90;99.90;;;;;;5010464;28;20411;-70
2021/03/20 07:50:22;;;;;;;5.20;3.27;;;0.90;99.90;;;;;;5009894;28;20395;-71
2021/03/20 07:53:02;;;;;;;4.65;3.80;;;1.00;99.90;;;;;;5007892;28;20469;-71
2021/03/20 07:55:34;;;;;;;4.97;3.38;;;1.10;99.90;;;;;;5008446;28;20381;-71
2021/03/20 07:58:02;;;;;;;4.70;3.85;;;1.20;99.90;;;;;;5009742;28;20419;-72
2021/03/20 08:00:34;;;;;;;5.70;3.60;;;2.40;99.90;;;;;;5010505;28;20377;-70
2021/03/20 08:03:18;;;;;;;4.20;3.10;;;1.40;99.90;;;;;;5009825;28;20428;-71
2021/03/20 08:05:44;;;;;;;4.18;3.47;;;3.20;99.90;;;;;;5010140;28;20424;-73
2021/03/20 08:08:26;;;;;;;3.50;3.20;;;1.90;99.90;;;;;;5010162;28;20511;-70
2021/03/20 08:10:57;;;;;;;3.80;2.90;;;1.60;99.90;;;;;;5002854;28;20433;-70
2021/03/20 08:13:36;;;;;;;4.10;3.00;;;1.70;99.90;;;;;;5002773;28;20392;-70
2021/03/20 08:16:04;;;;;;;4.43;3.40;;;1.90;99.90;;;;;;5012546;28;20911;-71
2021/03/20 08:18:36;;;;;;;3.75;3.10;;;1.60;99.90;;;;;;5002770;28;20469;-71
2021/03/20 08:21:31;;;;;;;3.80;2.92;;;1.90;99.90;;;;;;5013635;28;20390;-71
2021/03/20 08:24:22;;;;;;;4.68;3.20;;;2.00;99.90;;;;;;5000210;28;20871;-70
2021/03/20 08:26:57;;;;;;;4.15;3.10;;;2.40;99.90;;;;;;5006531;28;20417;-74
2021/03/20 08:29:56;;;;;;;4.30;3.40;;;2.10;99.90;;;;;;4997600;28;20847;-72
2021/03/20 08:32:57;;;;;;;3.78;2.95;;;2.50;99.90;;;;;;5010067;28;20396;-73
2021/03/20 08:35:38;;;;;;;4.90;3.67;;;2.20;99.90;;;;;;5009927;28;20392;-72
2021/03/20 08:38:24;;;;;;;5.22;3.30;;;2.10;99.90;;;;;;5009298;28;21294;-71
2021/03/20 08:41:02;;;;;;;3.63;3.25;;;1.90;99.90;;;;;;5007159;28;20797;-71
2021/03/20 08:43:46;;;;;;;4.05;3.65;;;2.20;99.90;;;;;;5013625;28;20889;-71
2021/03/20 08:46:23;;;;;;;4.78;3.70;;;2.10;99.90;;;;;;5011850;28;20401;-70
2021/03/20 08:49:25;;;;;;;4.40;3.30;;;2.00;99.90;;;;;;5011396;28;20412;-72
2021/03/20 08:52:30;;;;;;;7.88;4.32;;;1.80;99.90;;;;;;5011166;28;20377;-71
2021/03/20 08:55:20;;;;;;;4.07;3.47;;;3.00;99.90;;;;;;5013306;28;20766;-71
2021/03/20 08:58:01;;;;;;;5.57;3.70;;;1.90;99.90;;;;;;5011341;28;20404;-72
2021/03/20 09:00:40;;;;;;;4.57;3.38;;;2.10;99.90;;;;;;5010736;28;20849;-69
2021/03/20 09:03:12;;;;;;;5.57;3.75;;;2.10;99.90;;;;;;5010661;28;20399;-68
2021/03/20 09:05:53;;;;;;;6.35;4.38;;;2.80;99.90;;;;;;5014028;28;20539;-71
2021/03/20 09:08:42;;;;;;;5.18;3.92;;;3.70;99.90;;;;;;5020333;28;20513;-69
2021/03/20 09:11:30;;;;;;;5.40;4.00;;;2.20;99.90;;;;;;5003837;28;20388;-68
2021/03/20 09:14:03;;;;;;;6.27;3.90;;;2.60;99.90;;;;;;5020059;28;20759;-68
2021/03/20 09:16:40;;;;;;;5.82;4.22;;;2.50;99.90;;;;;;5002195;28;20447;-69
2021/03/20 09:19:15;;;;;;;4.40;3.83;;;1.80;99.90;;;;;;5001530;28;20748;-69
2021/03/20 09:21:42;;;;;;;4.78;4.00;;;1.90;99.90;;;;;;5011295;28;20894;-69
2021/03/20 09:24:16;;;;;;;4.50;3.83;;;1.80;99.90;;;;;;5003933;28;20385;-69
2021/03/20 09:26:50;;;;;;;6.00;4.30;;;1.70;99.90;;;;;;4993743;28;20485;-69
2021/03/20 09:29:35;;;;;;;5.25;4.50;;;1.80;99.90;;;;;;4996380;28;20446;-69
2021/03/20 09:32:15;;;;;;;6.10;4.00;;;2.00;99.90;;;;;;5003738;28;20393;-70
2021/03/20 09:34:45;;;;;;;4.95;3.63;;;2.00;99.90;;;;;;5002454;28;20409;-70
2021/03/20 09:37:17;;;;;;;4.85;4.10;;;1.80;99.90;;;;;;5002053;28;20419;-70
2021/03/20 09:39:49;;;;;;;5.32;3.95;;;2.30;99.90;;;;;;5005118;28;20898;-70
2021/03/20 09:42:24;;;;;;;4.07;3.65;;;2.40;99.90;;;;;;5004612;28;20482;-70
2021/03/20 09:44:55;;;;;;;4.70;4.15;;;2.90;99.90;;;;;;5003690;28;20893;-74
2021/03/20 09:47:50;;;;;;;4.90;3.90;;;2.60;99.90;;;;;;5004478;28;20449;-70
2021/03/20 09:50:19;;;;;;;6.07;4.28;;;2.90;99.90;;;;;;5002639;28;20437;-70
2021/03/20 09:52:51;;;;;;;5.40;4.25;;;3.20;99.90;;;;;;5013162;28;20385;-69
2021/03/20 09:55:50;;;;;;;4.30;3.80;;;3.60;99.90;;;;;;5012928;28;20388;-70
2021/03/20 09:58:19;;;;;;;5.28;4.10;;;3.30;99.90;;;;;;5000066;28;20512;-71
2021/03/20 10:01:00;;;;;;;3.88;3.50;;;3.70;99.90;;;;;;5003256;28;20399;-70
2021/03/20 10:03:46;;;;;;;4.07;3.42;;;3.80;99.90;;;;;;5002660;28;20398;-70
2021/03/20 10:06:27;;;;;;;4.78;3.20;;;6.10;99.90;;;;;;5003077;28;20556;-70
2021/03/20 10:09:18;;;;;;;3.38;2.92;;;4.20;99.90;;;;;;5003253;28;20503;-74
2021/03/20 10:11:50;;;;;;;3.88;3.20;;;4.90;99.90;;;;;;5005794;28;20404;-70
2021/03/20 10:14:28;;;;;;;2.50;1.70;;;3.60;97.10;;;;;;5002923;28;20444;-69
2021/03/20 10:17:18;;;;;;;2.33;2.13;;;4.30;98.70;;;;;;5002833;28;20944;-73
2021/03/20 10:19:50;;;;;;;2.30;2.10;;;3.70;94.00;;;;;;5004421;28;20409;-68
2021/03/20 10:22:31;;;;;;;1.77;1.67;;;5.60;96.40;;;;;;5011650;28;20395;-71
2021/03/20 10:24:57;;;;;;;1.30;1.20;;;4.50;94.70;;;;;;5011230;28;20800;-71
2021/03/20 10:27:33;;;;;;;1.70;1.60;;;4.90;94.50;;;;;;5012229;28;20885;-69
2021/03/20 10:30:20;;;;;;;2.70;1.35;;;4.80;92.60;;;;;;5012157;28;20396;-70
2021/03/20 10:32:57;;;;;;;2.50;1.60;;;4.40;91.30;;;;;;5013092;28;20552;-68
2021/03/20 10:35:23;;;;;;;1.50;1.40;;;4.10;91.40;;;;;;5008150;28;20414;-69
2021/03/20 10:37:49;;;;;;;1.10;1.00;;;4.80;96.90;;;;;;4992477;28;20492;-69
2021/03/20 10:40:26;;;;;;;4.00;1.60;;;4.30;91.80;;;;;;4991925;28;20450;-68
2021/03/20 10:43:01;;;;;;;1.40;1.10;;;4.40;92.40;;;;;;5003304;28;20543;-69
2021/03/20 10:45:37;;;;;;;1.80;1.50;;;4.60;93.30;;;;;;4994420;28;20438;-69
2021/03/20 10:48:10;;;;;;;1.17;1.08;;;4.50;85.70;;;;;;5017086;28;20405;-72
2021/03/20 10:50:41;;;;;;;1.50;1.40;;;4.40;86.40;;;;;;5016502;28;20408;-70
2021/03/20 10:53:21;;;;;;;1.75;1.27;;;5.10;91.20;;;;;;4996929;28;20490;-69
2021/03/20 10:55:53;;;;;;;1.20;1.10;;;6.80;91.00;;;;;;4997501;28;20420;-71
2021/03/20 10:58:25;;;;;;;1.88;1.20;;;;;;;;;;5000867;28;20471;-69
2021/03/20 11:00:51;;;;;;;1.55;1.45;;;4.70;85.60;;;;;;5001865;28;20453;-72
2021/03/20 11:03:36;;;;;;;1.70;1.50;;;4.80;92.80;;;;;;4998280;28;20381;-69
2021/03/20 11:06:20;;;;;;;1.30;1.20;;;5.50;86.70;;;;;;4995810;28;20404;-71
2021/03/20 11:08:49;;;;;;;2.45;1.35;;;4.90;85.40;;;;;;5000143;28;20423;-70
2021/03/20 11:11:30;;;;;;;1.93;1.70;;;5.30;86.40;;;;;;5015955;28;20480;-71
2021/03/20 11:14:05;;;;;;;5.30;1.70;;;6.10;84.90;;;;;;5000454;28;20678;-73
2021/03/20 11:16:31;;;;;;;2.63;1.90;;;6.00;88.20;;;;;;4998193;28;20470;-70
2021/03/20 11:19:12;;;;;;;3.00;2.00;;;5.20;94.70;;;;;;5000699;28;20397;-71
2021/03/20 11:21:47;;;;;;;2.15;2.00;;;5.90;90.60;;;;;;5001975;28;21714;-71
2021/03/20 11:24:33;;;;;;;2.25;1.52;;;6.40;90.90;;;;;;4999775;28;20397;-73
2021/03/20 11:27:23;;;;;;;2.60;1.80;;;7.00;88.30;;;;;;5000125;28;20392;-73
2021/03/20 11:29:54;;;;;;;1.80;1.40;;;5.80;80.40;;;;;;5015560;28;21067;-70
2021/03/20 11:32:31;;;;;;;2.08;1.70;;;6.40;92.40;;;;;;5012112;28;20560;-72
2021/03/20 11:35:05;;;;;;;1.80;1.70;;;5.90;92.10;;;;;;4996590;28;20404;-73
2021/03/20 11:37:31;;;;;;;1.80;1.58;;;5.60;86.50;;;;;;5000656;28;20412;-74
2021/03/20 11:40:00;;;;;;;2.55;1.80;;;6.00;90.20;;;;;;4999428;28;20735;-73
2021/03/20 11:42:38;;;;;;;3.45;1.90;;;6.10;89.80;;;;;;4999723;28;20964;-70
2021/03/20 11:45:22;;;;;;;1.85;1.60;;;6.60;87.80;;;;;;4998432;28;20408;-70
2021/03/20 11:47:53;;;;;;;2.75;2.03;;;7.30;83.80;;;;;;4999261;28;20775;-72
2021/03/20 11:50:34;;;;;;;1.77;1.60;;;9.30;82.50;;;;;;5012451;28;20390;-70
2021/03/20 11:53:12;;;;;;;1.60;1.50;;;7.70;88.40;;;;;;5028827;28;20460;-74
2021/03/20 11:55:39;;;;;;;2.67;1.83;;;6.60;78.60;;;;;;5029198;28;20472;-70
2021/03/20 11:58:25;;;;;;;2.20;1.73;;;5.80;81.30;;;;;;5028053;28;20796;-71
2021/03/20 12:00:51;;;;;;;1.90;1.50;;;4.90;81.90;;;;;;5029487;28;20418;-70
2021/03/20 12:03:23;;;;;;;2.65;1.70;;;6.30;92.00;;;;;;5028669;28;20492;-70
2021/03/20 12:05:51;;;;;;;1.60;1.50;;;5.60;86.10;;;;;;5029592;28;20394;-70
2021/03/20 12:08:25;;;;;;;1.60;1.50;;;6.50;88.50;;;;;;5028007;28;20860;-70
2021/03/20 12:10:59;;;;;;;2.00;1.70;;;5.30;76.00;;;;;;5029238;28;21090;-70
2021/03/20 12:13:53;;;;;;;2.10;1.83;;;5.50;83.90;;;;;;5029274;28;20387;-71
2021/03/20 12:16:24;;;;;;;2.37;2.00;;;5.60;81.30;;;;;;5028504;28;20392;-70
2021/03/20 12:18:52;;;;;;;2.50;1.80;;;5.90;87.80;;;;;;5023198;28;20475;-70
2021/03/20 12:21:17;;;;;;;6.10;3.63;;;6.80;90.30;;;;;;5015867;28;20384;-70
2021/03/20 12:23:55;;;;;;;1.75;1.63;;;6.20;81.90;;;;;;5025777;28;20445;-68
2021/03/20 12:26:30;;;;;;;3.08;2.40;;;6.20;89.40;;;;;;5028510;28;20447;-68
2021/03/20 12:29:33;;;;;;;2.67;2.13;;;7.60;79.80;;;;;;5029043;28;21005;-69
2021/03/20 12:32:23;;;;;;;2.70;2.00;;;7.40;71.40;;;;;;5008211;28;20409;-72
2021/03/20 12:34:49;;;;;;;2.90;2.25;;;7.60;75.50;;;;;;5009879;28;20400;-68
2021/03/20 12:37:19;;;;;;;1.70;1.60;;;5.80;85.30;;;;;;5008216;28;20756;-69
2021/03/20 12:39:48;;;;;;;2.78;1.80;;;5.80;75.00;;;;;;5009804;28;20424;-69
2021/03/20 12:42:14;;;;;;;3.50;2.50;;;6.20;75.00;;;;;;5008347;28;20411;-69
2021/03/20 12:44:43;;;;;;;2.05;1.73;;;6.90;78.80;;;;;;5012533;28;20475;-68
2021/03/20 12:47:13;;;;;;;1.90;1.70;;;6.50;83.00;;;;;;5009896;28;20388;-68
2021/03/20 12:49:40;;;;;;;1.55;1.45;;;7.30;76.20;;;;;;5010226;28;20522;-68
2021/03/20 12:52:18;;;;;;;2.30;1.70;;;8.20;75.90;;;;;;5023970;28;20924;-69
2021/03/20 12:54:47;;;;;;;1.70;1.52;;;9.30;66.70;;;;;;5010051;28;20381;-69
2021/03/20 12:57:20;;;;;;;1.67;1.50;;;8.90;64.00;;;;;;5009632;28;20393;-68
2021/03/20 12:59:46;;;;;;;1.80;1.50;;;10.60;64.20;;;;;;5010026;28;20389;-69
2021/03/20 13:02:12;;;;;;;2.20;1.80;;;9.90;77.00;;;;;;5009479;28;20463;-69
2021/03/20 13:04:39;;;;;;;1.70;1.60;;;10.70;68.20;;;;;;5009959;28;20418;-69
2021/03/20 13:07:06;;;;;;;1.80;1.48;;;10.50;58.70;;;;;;5009079;28;20427;-71
2021/03/20 13:09:33;;;;;;;2.03;1.63;;;10.90;60.00;;;;;;5009478;28;20421;-70
2021/03/20 13:11:58;;;;;;;2.38;1.58;;;9.90;65.80;;;;;;5009570;28;20877;-68
2021/03/20 13:14:24;;;;;;;2.60;1.70;;;9.80;66.70;;;;;;5009076;28;20381;-69
2021/03/20 13:16:50;;;;;;;1.80;1.55;;;9.60;70.10;;;;;;5024571;28;20389;-68
2021/03/20 13:19:15;;;;;;;2.00;1.50;;;9.30;67.00;;;;;;5008771;28;20393;-69
2021/03/20 13:21:41;;;;;;;2.60;1.67;;;10.00;64.20;;;;;;5009890;28;20479;-68
2021/03/20 13:24:07;;;;;;;1.83;1.73;;;9.50;76.80;;;;;;5009026;28;20482;-69
2021/03/20 13:26:32;;;;;;;1.53;1.40;;;9.30;67.80;;;;;;5012465;28;20396;-70
2021/03/20 13:28:58;;;;;;;1.60;1.50;;;9.70;66.90;;;;;;5017415;28;20947;-68
2021/03/20 13:31:25;;;;;;;2.87;1.40;;;9.40;73.40;;;;;;5012253;28;20413;-69
2021/03/20 13:33:51;;;;;;;2.72;1.80;;;8.50;72.10;;;;;;5027955;28;20420;-69